createdAt,value
2018-03-08T00:00:04.662Z,46.07
2018-03-08T00:02:31.236Z,45.70
2018-03-08T00:04:57.852Z,48.27
2018-03-08T00:07:24.443Z,54.07
2018-03-08T00:09:51.040Z,140.07
2018-03-08T00:12:17.634Z,54.47
2018-03-08T00:14:44.216Z,107.43
2018-03-08T00:17:10.820Z,48.60
2018-03-08T00:19:37.407Z,48.97
2018-03-08T00:22:03.982Z,47.63
2018-03-08T00:24:30.587Z,49.50
2018-03-08T00:26:57.179Z,49.55
2018-03-08T00:29:23.766Z,46.60
2018-03-08T00:31:50.364Z,45.60
2018-03-08T00:34:16.939Z,45.50
2018-03-08T00:36:43.516Z,45.40
2018-03-08T00:39:10.123Z,45.10
2018-03-08T00:41:36.699Z,44.50
2018-03-08T00:44:03.285Z,45.47
2018-03-08T00:46:30.232Z,44.72
2018-03-08T00:48:56.808Z,49.10
2018-03-08T00:51:23.401Z,45.40
2018-03-08T00:53:50.136Z,45.33
2018-03-08T00:56:16.723Z,43.77
2018-03-08T00:58:43.299Z,45.03
2018-03-08T01:01:10.255Z,43.08
2018-03-08T01:03:36.856Z,42.72
2018-03-08T01:06:03.432Z,45.00
2018-03-08T01:08:30.068Z,43.03
2018-03-08T01:10:56.667Z,44.40
2018-03-08T01:13:23.243Z,46.30
2018-03-08T01:15:50.012Z,44.03
2018-03-08T01:18:16.599Z,43.17
2018-03-08T01:20:43.167Z,43.20
2018-03-08T01:23:09.771Z,45.10
2018-03-08T01:25:36.391Z,43.63
2018-03-08T01:28:02.980Z,43.75
2018-03-08T01:30:29.602Z,43.57
2018-03-08T01:32:56.195Z,42.47
2018-03-08T01:35:22.778Z,41.63
2018-03-08T01:37:49.469Z,42.40
2018-03-08T01:40:16.056Z,41.80
2018-03-08T01:42:42.644Z,43.97
2018-03-08T01:45:09.232Z,41.90
2018-03-08T01:47:35.927Z,44.05
2018-03-08T01:50:02.520Z,45.55
2018-03-08T01:52:29.107Z,44.33
2018-03-08T01:54:56.045Z,46.08
2018-03-08T01:57:22.857Z,48.42
2018-03-08T01:59:49.443Z,47.72
2018-03-08T02:02:16.367Z,47.25
2018-03-08T02:04:42.955Z,49.15
2018-03-08T02:07:09.539Z,47.40
2018-03-08T02:09:36.138Z,51.63
2018-03-08T02:12:02.728Z,52.72
2018-03-08T02:14:29.315Z,56.80
2018-03-08T02:16:55.935Z,53.40
2018-03-08T02:19:22.523Z,52.45
2018-03-08T02:21:49.118Z,49.65
2018-03-08T02:24:15.739Z,51.80
2018-03-08T02:26:42.331Z,48.42
2018-03-08T02:29:08.923Z,51.25
2018-03-08T02:31:35.531Z,50.35
2018-03-08T02:34:02.131Z,52.62
2018-03-08T02:36:28.719Z,52.08
2018-03-08T02:38:55.315Z,51.92
2018-03-08T02:41:22.329Z,51.13
2018-03-08T02:43:48.930Z,56.97
2018-03-08T02:46:15.523Z,50.72
2018-03-08T02:48:42.131Z,52.30
2018-03-08T02:51:08.726Z,52.00
2018-03-08T02:53:35.312Z,55.78
2018-03-08T02:56:01.935Z,53.95
2018-03-08T02:58:28.525Z,52.40
2018-03-08T03:00:55.120Z,51.72
2018-03-08T03:03:21.815Z,52.70
2018-03-08T03:05:48.404Z,55.05
2018-03-08T03:08:14.995Z,50.75
2018-03-08T03:10:41.609Z,52.10
2018-03-08T03:13:08.200Z,52.22
2018-03-08T03:15:34.791Z,54.53
2018-03-08T03:18:01.396Z,52.67
2018-03-08T03:20:27.985Z,53.85
2018-03-08T03:22:54.570Z,55.20
2018-03-08T03:25:21.186Z,55.90
2018-03-08T03:27:47.789Z,57.10
2018-03-08T03:30:14.389Z,55.45
2018-03-08T03:32:41.007Z,54.47
2018-03-08T03:35:07.607Z,54.65
2018-03-08T03:37:34.209Z,51.33
2018-03-08T03:40:01.120Z,52.10
2018-03-08T03:42:27.716Z,53.87
2018-03-08T03:44:54.556Z,52.17
2018-03-08T03:47:21.495Z,55.33
2018-03-08T03:49:48.089Z,53.95
2018-03-08T03:52:14.675Z,53.03
2018-03-08T03:54:41.288Z,55.75
2018-03-08T03:57:07.950Z,50.88
2018-03-08T03:59:34.538Z,53.00
2018-03-08T04:02:01.164Z,54.15
2018-03-08T04:04:27.805Z,51.22
2018-03-08T04:06:54.364Z,53.80
2018-03-08T04:09:21.050Z,54.65
2018-03-08T04:11:47.646Z,57.75
2018-03-08T04:14:14.516Z,54.60
2018-03-08T04:16:41.104Z,57.15
2018-03-08T04:19:07.711Z,60.30
2018-03-08T04:21:34.295Z,59.33
2018-03-08T04:24:00.888Z,58.97
2018-03-08T04:26:27.475Z,56.63
2018-03-08T04:28:54.103Z,57.88
2018-03-08T04:31:20.699Z,62.53
2018-03-08T04:33:47.291Z,60.42
2018-03-08T04:36:14.209Z,61.30
2018-03-08T04:38:40.799Z,62.55
2018-03-08T04:41:07.387Z,58.50
2018-03-08T04:43:33.996Z,61.90
2018-03-08T04:46:00.580Z,60.35
2018-03-08T04:48:27.167Z,60.10
2018-03-08T04:50:53.776Z,61.58
2018-03-08T04:53:20.369Z,62.10
2018-03-08T04:55:46.962Z,59.55
2018-03-08T04:58:13.556Z,61.28
2018-03-08T05:00:40.175Z,60.08
2018-03-08T05:03:06.800Z,61.28
2018-03-08T05:05:33.392Z,72.12
2018-03-08T05:08:00.001Z,61.75
2018-03-08T05:10:26.587Z,64.72
2018-03-08T05:12:53.179Z,60.42
2018-03-08T05:15:19.976Z,60.17
2018-03-08T05:17:46.573Z,60.20
2018-03-08T05:20:13.155Z,62.80
2018-03-08T05:22:39.849Z,58.97
2018-03-08T05:25:06.440Z,68.22
2018-03-08T05:27:33.029Z,59.33
2018-03-08T05:29:59.628Z,60.10
2018-03-08T05:32:26.225Z,74.10
2018-03-08T05:34:52.812Z,64.05
2018-03-08T05:37:19.698Z,60.17
2018-03-08T05:39:46.290Z,69.15
2018-03-08T05:42:12.891Z,73.50
2018-03-08T05:44:39.495Z,70.37
2018-03-08T05:47:06.077Z,69.53
2018-03-08T05:49:32.674Z,68.65
2018-03-08T05:51:59.271Z,68.90
2018-03-08T05:54:25.875Z,64.50
2018-03-08T05:56:52.464Z,63.70
2018-03-08T05:59:19.056Z,71.32
2018-03-08T06:01:45.648Z,68.22
2018-03-08T06:04:12.491Z,73.60
2018-03-08T06:06:39.088Z,75.22
2018-03-08T06:09:05.679Z,60.72
2018-03-08T06:11:32.280Z,79.78
2018-03-08T06:13:58.863Z,79.85
2018-03-08T06:16:25.468Z,62.97
2018-03-08T06:18:52.303Z,73.57
2018-03-08T06:21:18.891Z,66.60
2018-03-08T06:23:45.484Z,68.00
2018-03-08T06:26:12.112Z,65.12
2018-03-08T06:28:38.667Z,64.87
2018-03-08T06:31:05.286Z,87.25
2018-03-08T06:33:31.880Z,65.05
2018-03-08T06:35:58.476Z,64.60
2018-03-08T06:38:25.077Z,67.03
2018-03-08T06:40:51.661Z,68.22
2018-03-08T06:43:18.256Z,67.50
2018-03-08T06:45:44.843Z,65.47
2018-03-08T06:48:11.432Z,65.80
2018-03-08T06:50:38.027Z,64.30
2018-03-08T06:53:04.636Z,64.65
2018-03-08T06:55:31.239Z,59.10
2018-03-08T06:57:57.830Z,61.75
2018-03-08T07:00:24.419Z,59.88
2018-03-08T07:02:51.016Z,63.17
2018-03-08T07:05:17.896Z,65.65
2018-03-08T07:07:44.491Z,67.12
2018-03-08T07:10:11.072Z,62.58
2018-03-08T07:12:37.673Z,66.18
2018-03-08T07:15:04.264Z,71.28
2018-03-08T07:17:30.868Z,66.22
2018-03-08T07:19:57.679Z,68.78
2018-03-08T07:22:24.293Z,73.97
2018-03-08T07:24:50.871Z,66.68
2018-03-08T07:27:17.563Z,64.00
2018-03-08T07:29:44.158Z,70.97
2018-03-08T07:32:10.775Z,64.72
2018-03-08T07:34:37.387Z,57.58
2018-03-08T07:37:03.981Z,61.70
2018-03-08T07:39:30.567Z,63.40
2018-03-08T07:41:57.161Z,56.08
2018-03-08T07:44:23.746Z,58.45
2018-03-08T07:46:50.367Z,53.55
2018-03-08T07:49:16.956Z,55.72
2018-03-08T07:51:43.582Z,55.40
2018-03-08T07:54:10.156Z,46.92
2018-03-08T07:56:36.746Z,51.85
2018-03-08T07:59:03.329Z,50.10
2018-03-08T08:01:29.919Z,52.80
2018-03-08T08:03:56.509Z,42.65
2018-03-08T08:06:26.063Z,46.83
2018-03-08T08:08:58.607Z,45.53
2018-03-08T08:11:25.515Z,41.85
2018-03-08T08:13:52.103Z,35.95
2018-03-08T08:16:18.689Z,33.50
2018-03-08T08:18:45.288Z,32.45
2018-03-08T08:21:11.868Z,31.30
2018-03-08T08:23:38.451Z,28.12
2018-03-08T08:26:05.355Z,25.12
2018-03-08T08:31:05.047Z,28.90
2018-03-08T08:33:31.630Z,28.10
2018-03-08T08:35:58.217Z,29.25
2018-03-08T08:38:24.803Z,24.50
2018-03-08T08:40:51.387Z,21.58
2018-03-08T08:43:18.007Z,23.35
2018-03-08T08:45:44.593Z,22.75
2018-03-08T08:48:11.171Z,23.65
2018-03-08T08:50:37.763Z,24.10
2018-03-08T08:53:04.354Z,26.27
2018-03-08T08:55:30.937Z,26.02
2018-03-08T08:57:57.551Z,21.73
2018-03-08T09:00:24.135Z,24.73
2018-03-08T09:02:50.725Z,24.83
2018-03-08T09:05:17.308Z,26.98
2018-03-08T09:07:44.104Z,25.00
2018-03-08T09:10:10.690Z,28.17
2018-03-08T09:12:37.271Z,30.20
2018-03-08T09:15:03.880Z,29.20
2018-03-08T09:17:30.468Z,29.02
2018-03-08T09:19:57.048Z,28.67
2018-03-08T09:22:23.659Z,29.08
2018-03-08T09:24:50.256Z,27.27
2018-03-08T09:27:16.835Z,24.52
2018-03-08T09:29:43.432Z,24.80
2018-03-08T09:32:10.011Z,26.95
2018-03-08T09:34:36.615Z,25.98
2018-03-08T09:37:03.237Z,27.25
2018-03-08T09:39:29.820Z,26.48
2018-03-08T09:41:56.403Z,27.97
2018-03-08T09:44:23.016Z,28.77
2018-03-08T09:46:49.600Z,25.95
2018-03-08T09:49:16.416Z,27.62
2018-03-08T09:51:43.359Z,26.95
2018-03-08T09:54:09.927Z,26.80
2018-03-08T09:56:36.503Z,25.60
2018-03-08T09:59:03.111Z,25.57
2018-03-08T10:01:29.676Z,27.17
2018-03-08T10:03:56.284Z,27.45
2018-03-08T10:06:22.871Z,25.95
2018-03-08T10:08:49.468Z,27.95
2018-03-08T10:11:16.228Z,31.70
2018-03-08T10:13:42.828Z,30.80
2018-03-08T10:16:09.416Z,29.47
2018-03-08T10:18:36.014Z,31.33
2018-03-08T10:21:02.584Z,31.77
2018-03-08T10:23:29.183Z,33.17
2018-03-08T10:25:55.775Z,32.47
2018-03-08T10:28:22.356Z,34.93
2018-03-08T10:30:48.936Z,28.67
2018-03-08T10:33:15.616Z,35.87
2018-03-08T10:35:42.203Z,32.60
2018-03-08T10:38:08.793Z,32.53
2018-03-08T10:43:01.967Z,32.20
2018-03-08T10:45:28.566Z,33.37
2018-03-08T10:47:55.148Z,35.87
2018-03-08T10:50:21.735Z,35.00
2018-03-08T10:52:48.318Z,33.80
2018-03-08T10:55:14.908Z,32.10
2018-03-08T10:57:41.492Z,36.40
2018-03-08T11:00:08.073Z,33.60
2018-03-08T11:02:34.663Z,34.80
2018-03-08T11:05:01.248Z,35.10
2018-03-08T11:07:27.829Z,31.00
2018-03-08T11:09:54.409Z,31.30
2018-03-08T11:12:20.987Z,32.13
2018-03-08T11:14:47.599Z,29.37
2018-03-08T11:17:14.172Z,30.40
2018-03-08T11:19:40.747Z,27.10
2018-03-08T11:22:07.356Z,29.60
2018-03-08T11:24:33.937Z,24.87
2018-03-08T11:27:00.507Z,24.70
2018-03-08T11:29:27.451Z,26.17
2018-03-08T11:31:54.027Z,25.50
2018-03-08T11:34:20.611Z,24.07
2018-03-08T11:36:47.199Z,24.37
2018-03-08T11:39:13.780Z,24.40
2018-03-08T11:41:40.356Z,23.53
2018-03-08T11:44:06.959Z,24.73
2018-03-08T11:46:33.536Z,25.43
2018-03-08T11:49:00.412Z,21.57
2018-03-08T11:51:26.723Z,21.67
2018-03-08T11:53:53.324Z,20.37
2018-03-08T11:56:19.904Z,21.20
2018-03-08T11:58:46.511Z,23.33
2018-03-08T12:01:13.104Z,22.43
2018-03-08T12:03:39.684Z,23.07
2018-03-08T12:06:06.292Z,21.27
2018-03-08T12:08:32.867Z,24.63
2018-03-08T12:10:59.452Z,22.67
2018-03-08T12:13:26.181Z,22.13
2018-03-08T12:15:52.759Z,21.50
2018-03-08T12:18:19.340Z,21.00
2018-03-08T12:20:45.948Z,22.10
2018-03-08T12:23:12.575Z,19.90
2018-03-08T12:25:39.095Z,20.87
2018-03-08T12:28:05.698Z,19.20
2018-03-08T12:30:32.267Z,17.00
2018-03-08T12:32:58.842Z,18.73
2018-03-08T12:35:25.439Z,18.87
2018-03-08T12:37:52.028Z,18.87
2018-03-08T12:40:18.607Z,18.83
2018-03-08T12:42:45.188Z,20.13
2018-03-08T12:45:11.771Z,19.40
2018-03-08T12:47:38.346Z,17.13
2018-03-08T12:50:04.947Z,17.67
2018-03-08T12:52:31.522Z,16.50
2018-03-08T12:54:58.099Z,18.07
2018-03-08T12:57:24.702Z,18.33
2018-03-08T12:59:51.284Z,16.07
2018-03-08T13:02:17.877Z,16.13
2018-03-08T13:04:44.470Z,17.80
2018-03-08T13:07:11.051Z,16.67
2018-03-08T13:09:37.628Z,16.60
2018-03-08T13:12:04.211Z,16.10
2018-03-08T13:14:30.822Z,15.87
2018-03-08T13:16:57.401Z,15.50
2018-03-08T13:19:23.979Z,16.20
2018-03-08T13:21:50.750Z,14.50
2018-03-08T13:24:17.327Z,17.60
2018-03-08T13:26:43.903Z,17.60
2018-03-08T13:29:10.501Z,18.80
2018-03-08T13:31:37.075Z,18.10
2018-03-08T13:34:03.654Z,14.57
2018-03-08T13:36:30.241Z,15.07
2018-03-08T13:38:56.811Z,16.13
2018-03-08T13:41:23.396Z,14.10
2018-03-08T13:43:49.972Z,14.67
2018-03-08T13:46:16.561Z,14.20
2018-03-08T13:48:43.339Z,13.83
2018-03-08T13:51:09.917Z,13.53
2018-03-08T13:53:36.495Z,12.17
2018-03-08T13:56:03.088Z,12.00
2018-03-08T13:58:29.667Z,12.93
2018-03-08T14:00:56.242Z,11.90
2018-03-08T14:03:22.843Z,11.30
2018-03-08T14:05:49.819Z,11.63
2018-03-08T14:08:16.379Z,11.03
2018-03-08T14:10:42.985Z,11.00
2018-03-08T14:13:09.563Z,11.50
2018-03-08T14:15:36.145Z,11.60
2018-03-08T14:18:03.035Z,9.93
2018-03-08T14:20:29.612Z,9.40
2018-03-08T14:22:56.183Z,9.43
2018-03-08T14:25:22.784Z,9.30
2018-03-08T14:27:49.365Z,9.43
2018-03-08T14:30:15.929Z,9.60
2018-03-08T14:32:42.516Z,10.40
2018-03-08T14:35:09.088Z,9.47
2018-03-08T14:37:35.663Z,10.83
2018-03-08T14:40:02.363Z,10.23
2018-03-08T14:42:28.930Z,9.37
2018-03-08T14:44:55.509Z,10.70
2018-03-08T14:47:22.096Z,8.40
2018-03-08T14:49:48.671Z,10.70
2018-03-08T14:52:15.255Z,10.13
2018-03-08T14:54:42.107Z,9.30
2018-03-08T14:57:08.686Z,9.27
2018-03-08T14:59:35.256Z,9.50
2018-03-08T15:02:01.831Z,8.60
2018-03-08T15:04:28.403Z,10.00
2018-03-08T15:06:55.013Z,9.07
2018-03-08T15:09:21.595Z,9.23
2018-03-08T15:11:48.166Z,8.90
2018-03-08T15:14:14.776Z,10.33
2018-03-08T15:16:41.394Z,9.30
2018-03-08T15:19:07.955Z,9.03
2018-03-08T15:21:34.752Z,8.80
2018-03-08T15:24:01.327Z,8.30
2018-03-08T15:26:27.899Z,8.20
2018-03-08T15:28:54.496Z,7.27
2018-03-08T15:31:21.060Z,6.83
2018-03-08T15:33:47.636Z,7.77
2018-03-08T15:36:14.223Z,7.73
2018-03-08T15:38:40.792Z,7.13
2018-03-08T15:41:07.363Z,7.20
2018-03-08T15:43:34.206Z,7.00
2018-03-08T15:46:00.776Z,6.20
2018-03-08T15:48:27.345Z,5.97
2018-03-08T15:50:54.116Z,5.77
2018-03-08T15:53:20.677Z,7.17
2018-03-08T15:55:47.247Z,6.50
2018-03-08T15:58:14.148Z,6.00
2018-03-08T16:00:40.729Z,5.90
2018-03-08T16:03:07.287Z,6.63
2018-03-08T16:05:33.863Z,6.20
2018-03-08T16:08:03.399Z,7.27
2018-03-08T16:10:35.863Z,6.10
2018-03-08T16:13:02.440Z,6.30
2018-03-08T16:15:29.004Z,8.87
2018-03-08T16:17:55.851Z,7.17
2018-03-08T16:20:22.431Z,6.60
2018-03-08T16:22:49.004Z,7.37
2018-03-08T16:25:15.580Z,6.63
2018-03-08T16:27:42.163Z,6.83
2018-03-08T16:30:08.739Z,8.13
2018-03-08T16:32:35.307Z,7.70
2018-03-08T16:35:01.899Z,7.90
2018-03-08T16:37:28.472Z,7.20
2018-03-08T16:39:55.044Z,7.30
2018-03-08T16:42:21.719Z,7.90
2018-03-08T16:44:48.365Z,6.80
2018-03-08T16:47:14.863Z,7.03
2018-03-08T16:49:41.444Z,6.77
2018-03-08T16:52:08.002Z,5.90
2018-03-08T16:54:34.572Z,6.23
2018-03-08T16:57:01.143Z,6.00
2018-03-08T16:59:27.742Z,7.23
2018-03-08T17:01:54.320Z,7.70
2018-03-08T17:04:20.895Z,7.87
2018-03-08T17:06:47.517Z,7.90
2018-03-08T17:09:14.101Z,7.10
2018-03-08T17:11:40.624Z,8.30
2018-03-08T17:14:07.219Z,8.00
2018-03-08T17:16:33.792Z,6.83
2018-03-08T17:19:00.368Z,6.53
2018-03-08T17:21:26.967Z,8.60
2018-03-08T17:23:53.547Z,8.93
2018-03-08T17:26:20.122Z,7.87
2018-03-08T17:28:46.740Z,9.30
2018-03-08T17:31:13.323Z,7.37
2018-03-08T17:33:39.890Z,8.43
2018-03-08T17:36:06.471Z,7.67
2018-03-08T17:38:33.042Z,6.83
2018-03-08T17:40:59.626Z,7.90
2018-03-08T17:43:26.208Z,7.73
2018-03-08T17:45:52.784Z,8.60
2018-03-08T17:48:19.368Z,6.83
2018-03-08T17:50:45.940Z,7.87
2018-03-08T17:53:12.507Z,7.63
2018-03-08T17:55:39.087Z,8.77
2018-03-08T17:58:05.670Z,8.70
2018-03-08T18:00:32.255Z,7.57
2018-03-08T18:02:58.828Z,8.73
2018-03-08T18:05:25.456Z,9.50
2018-03-08T18:07:51.971Z,8.20
2018-03-08T18:10:18.630Z,8.87
2018-03-08T18:12:45.225Z,6.30
2018-03-08T18:15:13.757Z,8.33
2018-03-08T18:17:40.330Z,8.73
2018-03-08T18:20:06.910Z,9.70
2018-03-08T18:22:33.475Z,9.00
2018-03-08T18:25:00.064Z,8.20
2018-03-08T18:27:26.640Z,7.60
2018-03-08T18:29:53.212Z,8.40
2018-03-08T18:32:19.885Z,8.00
2018-03-08T18:34:46.471Z,8.30
2018-03-08T18:37:13.040Z,9.03
2018-03-08T18:42:12.822Z,8.47
2018-03-08T18:44:39.384Z,9.67
2018-03-08T18:47:05.960Z,9.23
2018-03-08T18:49:32.535Z,9.50
2018-03-08T18:52:00.020Z,10.00
2018-03-08T18:54:26.648Z,10.97
2018-03-08T18:56:53.221Z,11.53
2018-03-08T18:59:19.831Z,10.30
2018-03-08T19:01:46.418Z,11.87
2018-03-08T19:04:12.993Z,9.87
2018-03-08T19:06:39.600Z,12.07
2018-03-08T19:09:06.180Z,11.50
2018-03-08T19:11:32.757Z,14.03
2018-03-08T19:13:59.436Z,12.40
2018-03-08T19:16:26.016Z,14.37
2018-03-08T19:18:52.678Z,14.90
2018-03-08T19:21:19.245Z,16.20
2018-03-08T19:23:45.823Z,15.97
2018-03-08T19:26:12.398Z,17.23
2018-03-08T19:28:38.999Z,15.27
2018-03-08T19:31:05.579Z,14.40
2018-03-08T19:33:32.163Z,16.73
2018-03-08T19:35:58.764Z,15.20
2018-03-08T19:38:25.350Z,11.20
2018-03-08T19:40:51.920Z,11.30
2018-03-08T19:43:18.511Z,12.00
2018-03-08T19:45:45.092Z,12.43
2018-03-08T19:48:11.672Z,11.17
2018-03-08T19:50:38.454Z,12.27
2018-03-08T19:53:05.039Z,11.47
2018-03-08T19:55:31.623Z,12.47
2018-03-08T19:57:58.208Z,11.87
2018-03-08T20:00:24.814Z,12.93
2018-03-08T20:02:51.743Z,12.30
2018-03-08T20:05:18.382Z,12.80
2018-03-08T20:07:44.964Z,13.00
2018-03-08T20:10:11.559Z,12.63
2018-03-08T20:12:38.147Z,15.00
2018-03-08T20:15:04.736Z,13.47
2018-03-08T20:17:31.335Z,13.40
2018-03-08T20:19:57.915Z,12.50
2018-03-08T20:22:24.496Z,14.03
2018-03-08T20:24:51.075Z,14.30
2018-03-08T20:27:17.663Z,14.10
2018-03-08T20:29:44.264Z,15.00
2018-03-08T20:32:10.963Z,12.07
2018-03-08T20:34:37.516Z,13.83
2018-03-08T20:37:04.332Z,13.60
2018-03-08T20:39:30.908Z,11.83
2018-03-08T20:41:57.484Z,11.77
2018-03-08T20:44:24.080Z,12.17
2018-03-08T20:46:50.660Z,12.47
2018-03-08T20:49:17.235Z,10.20
2018-03-08T20:51:44.140Z,12.40
2018-03-08T20:54:10.711Z,12.13
2018-03-08T20:56:37.283Z,11.20
2018-03-08T20:59:03.868Z,12.63
2018-03-08T21:01:30.551Z,11.13
2018-03-08T21:03:57.128Z,11.23
2018-03-08T21:06:23.711Z,11.80
2018-03-08T21:08:50.287Z,10.00
2018-03-08T21:11:16.866Z,9.60
2018-03-08T21:13:43.704Z,8.87
2018-03-08T21:16:10.395Z,8.17
2018-03-08T21:18:36.967Z,9.03
2018-03-08T21:21:03.659Z,7.93
2018-03-08T21:23:30.229Z,5.10
2018-03-08T21:25:56.811Z,5.30
2018-03-08T21:28:23.374Z,5.20
2018-03-08T21:30:49.947Z,5.90
2018-03-08T21:33:16.518Z,5.23
2018-03-08T21:35:43.102Z,5.73
2018-03-08T21:38:09.663Z,5.40
2018-03-08T21:40:36.227Z,5.53
2018-03-08T21:43:03.262Z,4.87
2018-03-08T21:45:29.752Z,4.33
2018-03-08T21:47:56.324Z,5.10
2018-03-08T21:50:22.924Z,4.87
2018-03-08T21:52:49.502Z,4.83
2018-03-08T21:55:16.076Z,4.82
2018-03-08T21:57:42.656Z,4.50
2018-03-08T22:00:09.232Z,4.82
2018-03-08T22:02:35.831Z,5.20
2018-03-08T22:05:02.400Z,4.70
2018-03-08T22:07:28.987Z,4.68
2018-03-08T22:09:55.569Z,6.20
2018-03-08T22:12:22.172Z,5.60
2018-03-08T22:14:48.758Z,6.35
2018-03-08T22:17:15.317Z,5.60
2018-03-08T22:19:41.894Z,5.32
2018-03-08T22:22:08.847Z,6.07
2018-03-08T22:24:35.426Z,5.60
2018-03-08T22:27:02.177Z,6.53
2018-03-08T22:29:28.961Z,6.93
2018-03-08T22:31:55.551Z,7.10
2018-03-08T22:34:22.132Z,6.72
2018-03-08T22:36:48.745Z,7.15
2018-03-08T22:39:15.320Z,7.00
2018-03-08T22:41:41.896Z,7.40
2018-03-08T22:44:08.483Z,7.15
2018-03-08T22:46:35.347Z,6.40
2018-03-08T22:49:01.919Z,7.93
2018-03-08T22:51:28.504Z,8.20
2018-03-08T22:53:55.116Z,7.43
2018-03-08T22:56:21.727Z,8.70
2018-03-08T22:58:48.292Z,8.55
2018-03-08T23:01:34.567Z,9.18
2018-03-08T23:04:01.191Z,9.65
2018-03-08T23:06:27.755Z,9.75
2018-03-08T23:08:54.343Z,8.77
2018-03-08T23:11:20.932Z,10.10
2018-03-08T23:13:47.511Z,9.80
2018-03-08T23:16:14.104Z,9.88
2018-03-08T23:18:40.719Z,10.00
2018-03-08T23:21:07.572Z,10.40
2018-03-08T23:23:34.151Z,9.88
2018-03-08T23:26:00.943Z,13.00
2018-03-08T23:28:27.545Z,12.60
2018-03-08T23:30:54.112Z,12.03
2018-03-08T23:33:20.716Z,14.00
2018-03-08T23:35:47.303Z,12.95
2018-03-08T23:38:13.894Z,13.85
2018-03-08T23:40:40.504Z,14.43
2018-03-08T23:43:07.096Z,14.15
2018-03-08T23:45:33.687Z,15.18
2018-03-08T23:48:00.292Z,16.25
2018-03-08T23:50:26.880Z,15.27
2018-03-08T23:52:53.468Z,15.60
2018-03-08T23:55:20.074Z,16.50
2018-03-08T23:57:46.667Z,15.98
